sensor_id;sensor_type;location;lat;lon;timestamp;pressure;altitude;pressure_sealevel;temperature;humidity
35291;BME280;21411;50.024;19.220;2023-03-03T00:00:54;99228.54;;;-2.54;100.00
35291;BME280;21411;50.024;19.220;2023-03-03T00:03:22;99229.95;;;-2.57;100.00
35291;BME280;21411;50.024;19.220;2023-03-03T00:05:50;99229.80;;;-2.59;100.00
35291;BME280;21411;50.024;19.220;2023-03-03T00:08:18;99231.05;;;-2.62;100.00
35291;BME280;21411;50.024;19.220;2023-03-03T00:10:45;99230.73;;;-2.65;100.00
35291;BME280;21411;50.024;19.220;2023-03-03T00:13:21;99228.83;;;-2.67;100.00
35291;BME280;21411;50.024;19.220;2023-03-03T00:15:48;99226.59;;;-2.68;100.00
35291;BME280;21411;50.024;19.220;2023-03-03T00:18:34;99224.34;;;-2.70;100.00
35291;BME280;21411;50.024;19.220;2023-03-03T00:21:03;99223.70;;;-2.74;100.00
35291;BME280;21411;50.024;19.220;2023-03-03T00:23:40;99225.46;;;-2.78;100.00
35291;BME280;21411;50.024;19.220;2023-03-03T00:26:30;99227.23;;;-2.81;100.00
35291;BME280;21411;50.024;19.220;2023-03-03T00:28:59;99225.52;;;-2.84;100.00
35291;BME280;21411;50.024;19.220;2023-03-03T00:31:34;99223.13;;;-2.88;100.00
35291;BME280;21411;50.024;19.220;2023-03-03T00:36:45;99228.23;;;-2.94;100.00
35291;BME280;21411;50.024;19.220;2023-03-03T00:39:20;99229.45;;;-2.97;100.00
35291;BME280;21411;50.024;19.220;2023-03-03T00:41:47;99224.44;;;-3.00;100.00
35291;BME280;21411;50.024;19.220;2023-03-03T00:47:35;99216.15;;;-3.05;100.00
35291;BME280;21411;50.024;19.220;2023-03-03T00:52:37;99210.62;;;-3.09;100.00
35291;BME280;21411;50.024;19.220;2023-03-03T00:55:05;99209.23;;;-3.09;100.00
35291;BME280;21411;50.024;19.220;2023-03-03T00:57:33;99204.36;;;-3.08;100.00
35291;BME280;21411;50.024;19.220;2023-03-03T00:59:59;99196.34;;;-3.06;100.00
35291;BME280;21411;50.024;19.220;2023-03-03T01:02:26;99196.34;;;-3.06;100.00
35291;BME280;21411;50.024;19.220;2023-03-03T01:04:53;99197.93;;;-3.08;100.00
35291;BME280;21411;50.024;19.220;2023-03-03T01:07:23;99197.59;;;-3.10;100.00
35291;BME280;21411;50.024;19.220;2023-03-03T01:09:50;99195.54;;;-3.14;100.00
35291;BME280;21411;50.024;19.220;2023-03-03T01:12:17;99196.10;;;-3.18;100.00
35291;BME280;21411;50.024;19.220;2023-03-03T01:14:44;99193.02;;;-3.23;100.00
35291;BME280;21411;50.024;19.220;2023-03-03T01:17:11;99189.21;;;-3.25;100.00
35291;BME280;21411;50.024;19.220;2023-03-03T01:19:37;99187.66;;;-3.27;100.00
35291;BME280;21411;50.024;19.220;2023-03-03T01:22:04;99185.41;;;-3.28;100.00
35291;BME280;21411;50.024;19.220;2023-03-03T01:24:31;99184.20;;;-3.30;100.00
35291;BME280;21411;50.024;19.220;2023-03-03T01:26:57;99177.44;;;-3.31;100.00
35291;BME280;21411;50.024;19.220;2023-03-03T01:29:24;99180.59;;;-3.34;100.00
35291;BME280;21411;50.024;19.220;2023-03-03T01:31:50;99180.10;;;-3.36;100.00
35291;BME280;21411;50.024;19.220;2023-03-03T01:34:17;99185.49;;;-3.37;100.00
35291;BME280;21411;50.024;19.220;2023-03-03T01:36:44;99188.63;;;-3.40;100.00
35291;BME280;21411;50.024;19.220;2023-03-03T01:39:11;99189.52;;;-3.41;100.00
35291;BME280;21411;50.024;19.220;2023-03-03T01:41:38;99183.77;;;-3.39;100.00
35291;BME280;21411;50.024;19.220;2023-03-03T01:44:05;99185.66;;;-3.37;100.00
35291;BME280;21411;50.024;19.220;2023-03-03T01:46:45;99187.02;;;-3.36;100.00
35291;BME280;21411;50.024;19.220;2023-03-03T01:49:47;99184.06;;;-3.33;100.00
35291;BME280;21411;50.024;19.220;2023-03-03T01:52:25;99184.02;;;-3.28;100.00
35291;BME280;21411;50.024;19.220;2023-03-03T01:55:02;99182.61;;;-3.27;100.00
35291;BME280;21411;50.024;19.220;2023-03-03T01:57:36;99182.30;;;-3.30;100.00
35291;BME280;21411;50.024;19.220;2023-03-03T02:00:05;99182.18;;;-3.36;100.00
35291;BME280;21411;50.024;19.220;2023-03-03T02:02:33;99184.64;;;-3.41;100.00
35291;BME280;21411;50.024;19.220;2023-03-03T02:05:00;99182.77;;;-3.46;100.00
35291;BME280;21411;50.024;19.220;2023-03-03T02:07:27;99182.11;;;-3.51;100.00
35291;BME280;21411;50.024;19.220;2023-03-03T02:09:59;99179.20;;;-3.56;100.00
35291;BME280;21411;50.024;19.220;2023-03-03T02:12:50;99182.36;;;-3.62;100.00
35291;BME280;21411;50.024;19.220;2023-03-03T02:15:30;99180.16;;;-3.69;100.00
35291;BME280;21411;50.024;19.220;2023-03-03T02:18:10;99177.23;;;-3.74;100.00
35291;BME280;21411;50.024;19.220;2023-03-03T02:21:00;99175.86;;;-3.78;100.00
35291;BME280;21411;50.024;19.220;2023-03-03T02:26:14;99181.98;;;-3.84;100.00
35291;BME280;21411;50.024;19.220;2023-03-03T02:28:42;99185.63;;;-3.86;100.00
35291;BME280;21411;50.024;19.220;2023-03-03T02:31:12;99182.88;;;-3.87;100.00
35291;BME280;21411;50.024;19.220;2023-03-03T02:33:42;99180.80;;;-3.89;100.00
35291;BME280;21411;50.024;19.220;2023-03-03T02:36:12;99184.11;;;-3.90;100.00
35291;BME280;21411;50.024;19.220;2023-03-03T02:38:58;99185.67;;;-3.92;100.00
35291;BME280;21411;50.024;19.220;2023-03-03T02:41:31;99176.31;;;-3.93;100.00
35291;BME280;21411;50.024;19.220;2023-03-03T02:46:33;99172.70;;;-3.99;100.00
35291;BME280;21411;50.024;19.220;2023-03-03T02:49:01;99173.93;;;-4.01;100.00
35291;BME280;21411;50.024;19.220;2023-03-03T02:51:27;99172.73;;;-4.04;100.00
35291;BME280;21411;50.024;19.220;2023-03-03T02:53:54;99169.26;;;-4.05;100.00
35291;BME280;21411;50.024;19.220;2023-03-03T02:56:21;99169.43;;;-4.06;100.00
35291;BME280;21411;50.024;19.220;2023-03-03T02:58:48;99171.86;;;-4.06;100.00
35291;BME280;21411;50.024;19.220;2023-03-03T03:01:14;99170.13;;;-4.06;100.00
35291;BME280;21411;50.024;19.220;2023-03-03T03:03:41;99170.99;;;-4.06;100.00
35291;BME280;21411;50.024;19.220;2023-03-03T03:06:07;99168.73;;;-4.06;100.00
35291;BME280;21411;50.024;19.220;2023-03-03T03:08:34;99173.77;;;-4.07;100.00
35291;BME280;21411;50.024;19.220;2023-03-03T03:11:02;99181.08;;;-4.09;100.00
35291;BME280;21411;50.024;19.220;2023-03-03T03:13:29;99182.12;;;-4.11;100.00
35291;BME280;21411;50.024;19.220;2023-03-03T03:15:56;99183.00;;;-4.13;100.00
35291;BME280;21411;50.024;19.220;2023-03-03T03:18:23;99186.83;;;-4.15;100.00
35291;BME280;21411;50.024;19.220;2023-03-03T03:20:49;99187.71;;;-4.15;100.00
35291;BME280;21411;50.024;19.220;2023-03-03T03:23:17;99184.95;;;-4.15;100.00
35291;BME280;21411;50.024;19.220;2023-03-03T03:25:44;99182.34;;;-4.17;100.00
35291;BME280;21411;50.024;19.220;2023-03-03T03:28:13;99180.09;;;-4.19;100.00
35291;BME280;21411;50.024;19.220;2023-03-03T03:30:41;99178.54;;;-4.21;100.00
35291;BME280;21411;50.024;19.220;2023-03-03T03:33:10;99173.35;;;-4.25;100.00
35291;BME280;21411;50.024;19.220;2023-03-03T03:35:37;99173.88;;;-4.27;100.00
35291;BME280;21411;50.024;19.220;2023-03-03T03:38:05;99173.37;;;-4.30;100.00
35291;BME280;21411;50.024;19.220;2023-03-03T03:40:32;99171.83;;;-4.33;100.00
35291;BME280;21411;50.024;19.220;2023-03-03T03:42:59;99172.36;;;-4.34;100.00
35291;BME280;21411;50.024;19.220;2023-03-03T03:45:25;99173.73;;;-4.36;100.00
35291;BME280;21411;50.024;19.220;2023-03-03T03:47:52;99167.68;;;-4.38;100.00
35291;BME280;21411;50.024;19.220;2023-03-03T03:50:18;99168.38;;;-4.40;100.00
35291;BME280;21411;50.024;19.220;2023-03-03T03:52:45;99170.31;;;-4.42;100.00
35291;BME280;21411;50.024;19.220;2023-03-03T03:55:12;99177.07;;;-4.44;100.00
35291;BME280;21411;50.024;19.220;2023-03-03T03:57:41;99182.27;;;-4.45;100.00
35291;BME280;21411;50.024;19.220;2023-03-03T04:00:10;99183.31;;;-4.44;100.00
35291;BME280;21411;50.024;19.220;2023-03-03T04:02:37;99184.35;;;-4.42;100.00
35291;BME280;21411;50.024;19.220;2023-03-03T04:05:04;99182.25;;;-4.39;100.00
35291;BME280;21411;50.024;19.220;2023-03-03T04:07:31;99179.13;;;-4.36;100.00
35291;BME280;21411;50.024;19.220;2023-03-03T04:09:57;99175.66;;;-4.34;100.00
35291;BME280;21411;50.024;19.220;2023-03-03T04:12:24;99170.27;;;-4.34;100.00
35291;BME280;21411;50.024;19.220;2023-03-03T04:14:51;99169.07;;;-4.36;100.00
35291;BME280;21411;50.024;19.220;2023-03-03T04:17:19;99169.42;;;-4.38;100.00
35291;BME280;21411;50.024;19.220;2023-03-03T04:19:46;99166.31;;;-4.41;100.00
35291;BME280;21411;50.024;19.220;2023-03-03T04:22:13;99167.19;;;-4.43;100.00
35291;BME280;21411;50.024;19.220;2023-03-03T04:24:40;99166.51;;;-4.47;100.00
35291;BME280;21411;50.024;19.220;2023-03-03T04:27:07;99165.29;;;-4.48;100.00
35291;BME280;21411;50.024;19.220;2023-03-03T04:29:35;99168.09;;;-4.52;100.00
35291;BME280;21411;50.024;19.220;2023-03-03T04:32:01;99173.13;;;-4.56;100.00
35291;BME280;21411;50.024;19.220;2023-03-03T04:34:28;99175.03;;;-4.56;100.00
35291;BME280;21411;50.024;19.220;2023-03-03T04:36:55;99177.27;;;-4.53;100.00
35291;BME280;21411;50.024;19.220;2023-03-03T04:39:22;99179.52;;;-4.52;100.00
35291;BME280;21411;50.024;19.220;2023-03-03T04:41:48;99186.97;;;-4.49;100.00
35291;BME280;21411;50.024;19.220;2023-03-03T04:44:15;99187.31;;;-4.48;100.00
35291;BME280;21411;50.024;19.220;2023-03-03T04:46:41;99187.99;;;-4.45;100.00
35291;BME280;21411;50.024;19.220;2023-03-03T04:49:08;99188.52;;;-4.42;100.00
35291;BME280;21411;50.024;19.220;2023-03-03T04:51:35;99186.77;;;-4.41;100.00
35291;BME280;21411;50.024;19.220;2023-03-03T04:54:02;99186.08;;;-4.40;100.00
35291;BME280;21411;50.024;19.220;2023-03-03T04:56:29;99183.48;;;-4.39;100.00
35291;BME280;21411;50.024;19.220;2023-03-03T04:58:57;99186.42;;;-4.37;100.00
35291;BME280;21411;50.024;19.220;2023-03-03T05:01:23;99186.23;;;-4.36;100.00
35291;BME280;21411;50.024;19.220;2023-03-03T05:03:50;99182.75;;;-4.34;100.00
35291;BME280;21411;50.024;19.220;2023-03-03T05:06:17;99181.35;;;-4.31;100.00
35291;BME280;21411;50.024;19.220;2023-03-03T05:08:45;99184.81;;;-4.27;100.00
35291;BME280;21411;50.024;19.220;2023-03-03T05:11:11;99191.56;;;-4.23;100.00
35291;BME280;21411;50.024;19.220;2023-03-03T05:13:39;99192.05;;;-4.17;100.00
35291;BME280;21411;50.024;19.220;2023-03-03T05:16:06;99192.37;;;-4.12;100.00
35291;BME280;21411;50.024;19.220;2023-03-03T05:18:33;99186.27;;;-4.08;100.00
35291;BME280;21411;50.024;19.220;2023-03-03T05:20:59;99188.34;;;-4.03;100.00
35291;BME280;21411;50.024;19.220;2023-03-03T05:23:26;99187.79;;;-3.97;100.00
35291;BME280;21411;50.024;19.220;2023-03-03T05:25:52;99185.84;;;-3.92;100.00
35291;BME280;21411;50.024;19.220;2023-03-03T05:28:19;99184.96;;;-3.88;100.00
35291;BME280;21411;50.024;19.220;2023-03-03T05:30:46;99184.08;;;-3.85;100.00
35291;BME280;21411;50.024;19.220;2023-03-03T05:33:14;99181.98;;;-3.82;100.00
35291;BME280;21411;50.024;19.220;2023-03-03T05:35:42;99179.88;;;-3.80;100.00
35291;BME280;21411;50.024;19.220;2023-03-03T05:38:09;99178.81;;;-3.76;100.00
35291;BME280;21411;50.024;19.220;2023-03-03T05:40:36;99186.08;;;-3.71;100.00
35291;BME280;21411;50.024;19.220;2023-03-03T05:43:03;99190.39;;;-3.68;100.00
35291;BME280;21411;50.024;19.220;2023-03-03T05:45:30;99195.74;;;-3.64;100.00
35291;BME280;21411;50.024;19.220;2023-03-03T05:47:57;99199.70;;;-3.59;100.00
35291;BME280;21411;50.024;19.220;2023-03-03T05:50:24;99203.83;;;-3.53;100.00
35291;BME280;21411;50.024;19.220;2023-03-03T05:52:51;99211.44;;;-3.46;100.00
35291;BME280;21411;50.024;19.220;2023-03-03T05:55:18;99211.73;;;-3.40;100.00
35291;BME280;21411;50.024;19.220;2023-03-03T05:57:45;99216.03;;;-3.33;100.00
35291;BME280;21411;50.024;19.220;2023-03-03T06:00:14;99219.64;;;-3.27;100.00
35291;BME280;21411;50.024;19.220;2023-03-03T06:02:42;99217.52;;;-3.22;100.00
35291;BME280;21411;50.024;19.220;2023-03-03T06:05:09;99226.14;;;-3.16;100.00
35291;BME280;21411;50.024;19.220;2023-03-03T06:07:37;99224.02;;;-3.11;100.00
35291;BME280;21411;50.024;19.220;2023-03-03T06:10:04;99231.98;;;-3.07;100.00
35291;BME280;21411;50.024;19.220;2023-03-03T06:12:31;99240.32;;;-3.06;100.00
35291;BME280;21411;50.024;19.220;2023-03-03T06:14:57;99244.83;;;-3.04;100.00
35291;BME280;21411;50.024;19.220;2023-03-03T06:17:24;99243.59;;;-3.01;100.00
35291;BME280;21411;50.024;19.220;2023-03-03T06:19:51;99246.66;;;-2.95;100.00
35291;BME280;21411;50.024;19.220;2023-03-03T06:22:17;99251.46;;;-2.89;100.00
35291;BME280;21411;50.024;19.220;2023-03-03T06:24:44;99256.31;;;-2.85;100.00
35291;BME280;21411;50.024;19.220;2023-03-03T06:27:11;99261.16;;;-2.82;100.00
35291;BME280;21411;50.024;19.220;2023-03-03T06:29:37;99268.42;;;-2.78;100.00
35291;BME280;21411;50.024;19.220;2023-03-03T06:32:04;99272.55;;;-2.73;100.00
35291;BME280;21411;50.024;19.220;2023-03-03T06:34:30;99278.95;;;-2.70;100.00
35291;BME280;21411;50.024;19.220;2023-03-03T06:36:57;99283.96;;;-2.67;100.00
35291;BME280;21411;50.024;19.220;2023-03-03T06:39:24;99277.30;;;-2.61;100.00
35291;BME280;21411;50.024;19.220;2023-03-03T06:41:51;99277.75;;;-2.53;100.00
35291;BME280;21411;50.024;19.220;2023-03-03T06:44:17;99277.35;;;-2.47;100.00
35291;BME280;21411;50.024;19.220;2023-03-03T06:46:44;99275.02;;;-2.40;100.00
35291;BME280;21411;50.024;19.220;2023-03-03T06:49:11;99269.88;;;-2.31;100.00
35291;BME280;21411;50.024;19.220;2023-03-03T06:51:38;99268.02;;;-2.20;100.00
35291;BME280;21411;50.024;19.220;2023-03-03T06:54:20;99267.68;;;-2.06;100.00
35291;BME280;21411;50.024;19.220;2023-03-03T06:56:52;99276.08;;;-1.93;100.00
35291;BME280;21411;50.024;19.220;2023-03-03T06:59:21;99276.48;;;-1.85;100.00
35291;BME280;21411;50.024;19.220;2023-03-03T07:01:49;99273.25;;;-1.77;100.00
35291;BME280;21411;50.024;19.220;2023-03-03T07:04:24;99266.71;;;-1.69;100.00
35291;BME280;21411;50.024;19.220;2023-03-03T07:06:55;99260.34;;;-1.62;100.00
35291;BME280;21411;50.024;19.220;2023-03-03T07:09:28;99250.46;;;-1.53;100.00
35291;BME280;21411;50.024;19.220;2023-03-03T07:12:09;99244.35;;;-1.39;100.00
35291;BME280;21411;50.024;19.220;2023-03-03T07:14:42;99239.27;;;-1.25;100.00
35291;BME280;21411;50.024;19.220;2023-03-03T07:17:15;99248.77;;;-1.10;100.00
35291;BME280;21411;50.024;19.220;2023-03-03T07:19:42;99261.86;;;-0.88;100.00
35291;BME280;21411;50.024;19.220;2023-03-03T07:24:40;99257.65;;;-0.56;100.00
35291;BME280;21411;50.024;19.220;2023-03-03T07:27:18;99253.67;;;-0.40;100.00
35291;BME280;21411;50.024;19.220;2023-03-03T07:29:48;99254.22;;;-0.31;100.00
35291;BME280;21411;50.024;19.220;2023-03-03T07:35:18;99234.40;;;-0.17;100.00
35291;BME280;21411;50.024;19.220;2023-03-03T07:37:48;99228.61;;;-0.06;100.00
35291;BME280;21411;50.024;19.220;2023-03-03T07:40:45;99238.17;;;0.12;100.00
35291;BME280;21411;50.024;19.220;2023-03-03T07:48:37;99241.52;;;0.36;100.00
35291;BME280;21411;50.024;19.220;2023-03-03T07:54:47;99249.35;;;0.62;100.00
35291;BME280;21411;50.024;19.220;2023-03-03T07:57:26;99248.14;;;0.61;100.00
35291;BME280;21411;50.024;19.220;2023-03-03T08:03:02;99251.41;;;0.40;100.00
35291;BME280;21411;50.024;19.220;2023-03-03T08:05:34;99246.79;;;0.27;100.00
35291;BME280;21411;50.024;19.220;2023-03-03T08:10:48;99229.90;;;0.32;100.00
35291;BME280;21411;50.024;19.220;2023-03-03T08:21:17;99244.26;;;0.47;100.00
35291;BME280;21411;50.024;19.220;2023-03-03T08:23:44;99251.74;;;0.49;100.00
35291;BME280;21411;50.024;19.220;2023-03-03T08:26:11;99264.64;;;0.50;100.00
35291;BME280;21411;50.024;19.220;2023-03-03T08:28:39;99271.33;;;0.48;100.00
35291;BME280;21411;50.024;19.220;2023-03-03T08:31:06;99266.33;;;0.45;100.00
35291;BME280;21411;50.024;19.220;2023-03-03T08:33:32;99257.85;;;0.40;100.00
35291;BME280;21411;50.024;19.220;2023-03-03T08:36:00;99243.54;;;0.40;100.00
35291;BME280;21411;50.024;19.220;2023-03-03T08:38:27;99249.21;;;0.36;100.00
35291;BME280;21411;50.024;19.220;2023-03-03T08:40:53;99253.84;;;0.24;100.00
35291;BME280;21411;50.024;19.220;2023-03-03T08:43:20;99255.17;;;0.10;100.00
35291;BME280;21411;50.024;19.220;2023-03-03T08:45:49;99266.65;;;0.04;100.00
35291;BME280;21411;50.024;19.220;2023-03-03T08:48:17;99272.13;;;0.01;100.00
35291;BME280;21411;50.024;19.220;2023-03-03T08:50:58;99281.77;;;-0.01;100.00
35291;BME280;21411;50.024;19.220;2023-03-03T08:53:24;99282.79;;;0.01;100.00
35291;BME280;21411;50.024;19.220;2023-03-03T08:55:51;99281.50;;;0.04;100.00
35291;BME280;21411;50.024;19.220;2023-03-03T08:58:19;99281.95;;;0.08;100.00
35291;BME280;21411;50.024;19.220;2023-03-03T09:00:47;99281.91;;;0.09;100.00
35291;BME280;21411;50.024;19.220;2023-03-03T09:03:13;99285.94;;;0.09;100.00
35291;BME280;21411;50.024;19.220;2023-03-03T09:05:40;99289.14;;;0.06;100.00
35291;BME280;21411;50.024;19.220;2023-03-03T09:08:07;99295.83;;;0.04;100.00
35291;BME280;21411;50.024;19.220;2023-03-03T09:10:34;99293.74;;;0.03;100.00
35291;BME280;21411;50.024;19.220;2023-03-03T09:13:06;99286.97;;;0.01;100.00
35291;BME280;21411;50.024;19.220;2023-03-03T09:15:34;99283.73;;;0.07;100.00
35291;BME280;21411;50.024;19.220;2023-03-03T09:20:43;99282.91;;;0.20;100.00
35291;BME280;21411;50.024;19.220;2023-03-03T09:25:50;99290.92;;;0.21;100.00
35291;BME280;21411;50.024;19.220;2023-03-03T09:28:29;99286.63;;;0.18;100.00
35291;BME280;21411;50.024;19.220;2023-03-03T09:30:58;99280.34;;;0.09;100.00
35291;BME280;21411;50.024;19.220;2023-03-03T09:33:46;99280.35;;;0.09;100.00
35291;BME280;21411;50.024;19.220;2023-03-03T09:36:24;99283.77;;;0.12;100.00
35291;BME280;21411;50.024;19.220;2023-03-03T09:38:52;99281.88;;;0.11;100.00
35291;BME280;21411;50.024;19.220;2023-03-03T09:49:47;99302.36;;;0.09;100.00
35291;BME280;21411;50.024;19.220;2023-03-03T09:52:32;99302.52;;;0.09;100.00
35291;BME280;21411;50.024;19.220;2023-03-03T09:58:01;99295.48;;;0.12;100.00
35291;BME280;21411;50.024;19.220;2023-03-03T10:03:26;99287.81;;;0.46;100.00
35291;BME280;21411;50.024;19.220;2023-03-03T10:11:56;99283.54;;;0.65;100.00
35291;BME280;21411;50.024;19.220;2023-03-03T10:20:15;99302.25;;;0.81;100.00
35291;BME280;21411;50.024;19.220;2023-03-03T10:22:52;99308.74;;;0.80;100.00
35291;BME280;21411;50.024;19.220;2023-03-03T10:25:21;99309.09;;;0.72;100.00
35291;BME280;21411;50.024;19.220;2023-03-03T10:33:22;99303.77;;;0.76;100.00
35291;BME280;21411;50.024;19.220;2023-03-03T10:46:54;99313.02;;;0.77;100.00
35291;BME280;21411;50.024;19.220;2023-03-03T10:52:02;99311.77;;;0.70;100.00
35291;BME280;21411;50.024;19.220;2023-03-03T11:00:23;99321.45;;;0.50;100.00
35291;BME280;21411;50.024;19.220;2023-03-03T11:02:58;99327.64;;;0.46;100.00
35291;BME280;21411;50.024;19.220;2023-03-03T11:05:50;99333.12;;;0.44;100.00
35291;BME280;21411;50.024;19.220;2023-03-03T11:09:02;99332.56;;;0.46;100.00
35291;BME280;21411;50.024;19.220;2023-03-03T11:14:30;99319.95;;;0.47;100.00
35291;BME280;21411;50.024;19.220;2023-03-03T11:19:50;99321.03;;;0.36;100.00
35291;BME280;21411;50.024;19.220;2023-03-03T11:31:01;99322.15;;;0.42;100.00
35291;BME280;21411;50.024;19.220;2023-03-03T11:33:50;99318.29;;;0.42;100.00
35291;BME280;21411;50.024;19.220;2023-03-03T11:36:30;99312.08;;;0.38;100.00
35291;BME280;21411;50.024;19.220;2023-03-03T11:39:03;99308.84;;;0.42;100.00
35291;BME280;21411;50.024;19.220;2023-03-03T11:41:40;99310.10;;;0.49;100.00
35291;BME280;21411;50.024;19.220;2023-03-03T11:47:01;99310.48;;;0.57;100.00
35291;BME280;21411;50.024;19.220;2023-03-03T11:54:46;99308.16;;;0.42;100.00
35291;BME280;21411;50.024;19.220;2023-03-03T12:00:40;99306.02;;;0.44;100.00
35291;BME280;21411;50.024;19.220;2023-03-03T12:03:26;99303.24;;;0.43;100.00
35291;BME280;21411;50.024;19.220;2023-03-03T12:05:59;99308.76;;;0.38;100.00
35291;BME280;21411;50.024;19.220;2023-03-03T12:11:52;99309.93;;;0.41;100.00
35291;BME280;21411;50.024;19.220;2023-03-03T12:14:35;99301.02;;;0.41;100.00
35291;BME280;21411;50.024;19.220;2023-03-03T12:27:59;99293.11;;;0.51;100.00
35291;BME280;21411;50.024;19.220;2023-03-03T12:30:40;99297.41;;;0.54;100.00
35291;BME280;21411;50.024;19.220;2023-03-03T12:33:21;99292.62;;;0.57;100.00
35291;BME280;21411;50.024;19.220;2023-03-03T12:44:04;99287.63;;;0.62;100.00
35291;BME280;21411;50.024;19.220;2023-03-03T12:48:59;99281.67;;;0.62;100.00
35291;BME280;21411;50.024;19.220;2023-03-03T12:57:19;99277.11;;;0.55;100.00
35291;BME280;21411;50.024;19.220;2023-03-03T13:00:14;99269.73;;;0.57;100.00
35291;BME280;21411;50.024;19.220;2023-03-03T13:10:47;99269.39;;;0.65;100.00
35291;BME280;21411;50.024;19.220;2023-03-03T13:13:23;99265.48;;;0.68;100.00
35291;BME280;21411;50.024;19.220;2023-03-03T13:16:03;99265.13;;;0.75;100.00
35291;BME280;21411;50.024;19.220;2023-03-03T13:18:54;99263.23;;;0.81;100.00
35291;BME280;21411;50.024;19.220;2023-03-03T13:21:36;99266.11;;;0.85;100.00
35291;BME280;21411;50.024;19.220;2023-03-03T13:26:49;99262.54;;;0.88;100.00
35291;BME280;21411;50.024;19.220;2023-03-03T13:29:41;99259.23;;;0.88;100.00
35291;BME280;21411;50.024;19.220;2023-03-03T13:32:16;99259.91;;;0.89;100.00
35291;BME280;21411;50.024;19.220;2023-03-03T13:34:53;99263.44;;;0.88;100.00
35291;BME280;21411;50.024;19.220;2023-03-03T13:37:26;99259.83;;;0.85;100.00
35291;BME280;21411;50.024;19.220;2023-03-03T13:42:51;99264.30;;;0.88;100.00
35291;BME280;21411;50.024;19.220;2023-03-03T13:45:36;99261.96;;;0.91;100.00
35291;BME280;21411;50.024;19.220;2023-03-03T13:48:14;99257.70;;;0.94;100.00
35291;BME280;21411;50.024;19.220;2023-03-03T13:50:56;99255.66;;;0.92;100.00
35291;BME280;21411;50.024;19.220;2023-03-03T13:53:27;99254.38;;;0.94;100.00
35291;BME280;21411;50.024;19.220;2023-03-03T14:06:54;99245.23;;;1.03;100.00
35291;BME280;21411;50.024;19.220;2023-03-03T14:12:21;99248.95;;;0.94;100.00
35291;BME280;21411;50.024;19.220;2023-03-03T14:15:01;99257.11;;;0.88;100.00
35291;BME280;21411;50.024;19.220;2023-03-03T14:20:23;99253.11;;;0.81;100.00
35291;BME280;21411;50.024;19.220;2023-03-03T14:23:09;99254.30;;;0.82;100.00
35291;BME280;21411;50.024;19.220;2023-03-03T14:26:04;99253.41;;;0.83;100.00
35291;BME280;21411;50.024;19.220;2023-03-03T14:28:42;99251.09;;;0.77;100.00
35291;BME280;21411;50.024;19.220;2023-03-03T14:31:27;99253.61;;;0.74;100.00
35291;BME280;21411;50.024;19.220;2023-03-03T14:33:59;99252.00;;;0.76;100.00
35291;BME280;21411;50.024;19.220;2023-03-03T14:36:39;99249.91;;;0.76;100.00
35291;BME280;21411;50.024;19.220;2023-03-03T14:39:34;99252.09;;;0.72;100.00
35291;BME280;21411;50.024;19.220;2023-03-03T14:42:09;99250.73;;;0.71;100.00
35291;BME280;21411;50.024;19.220;2023-03-03T14:44:52;99247.72;;;0.72;100.00
35291;BME280;21411;50.024;19.220;2023-03-03T14:47:22;99246.73;;;0.69;100.00
35291;BME280;21411;50.024;19.220;2023-03-03T14:49:50;99246.42;;;0.68;100.00
35291;BME280;21411;50.024;19.220;2023-03-03T14:52:21;99243.92;;;0.70;100.00
35291;BME280;21411;50.024;19.220;2023-03-03T14:54:52;99243.54;;;0.72;100.00
35291;BME280;21411;50.024;19.220;2023-03-03T14:57:39;99243.58;;;0.70;100.00
35291;BME280;21411;50.024;19.220;2023-03-03T15:05:21;99244.08;;;0.71;100.00
35291;BME280;21411;50.024;19.220;2023-03-03T15:07:57;99243.91;;;0.70;100.00
35291;BME280;21411;50.024;19.220;2023-03-03T15:10:44;99243.78;;;0.68;100.00
35291;BME280;21411;50.024;19.220;2023-03-03T15:18:26;99243.11;;;0.67;100.00
35291;BME280;21411;50.024;19.220;2023-03-03T15:21:04;99243.48;;;0.66;100.00
35291;BME280;21411;50.024;19.220;2023-03-03T15:26:54;99252.67;;;0.61;100.00
35291;BME280;21411;50.024;19.220;2023-03-03T15:34:44;99238.84;;;0.55;100.00
35291;BME280;21411;50.024;19.220;2023-03-03T15:42:56;99241.83;;;0.46;100.00
35291;BME280;21411;50.024;19.220;2023-03-03T15:45:30;99238.20;;;0.45;100.00
35291;BME280;21411;50.024;19.220;2023-03-03T16:01:34;99233.52;;;0.35;100.00
35291;BME280;21411;50.024;19.220;2023-03-03T16:04:17;99233.05;;;0.32;100.00
35291;BME280;21411;50.024;19.220;2023-03-03T16:06:56;99230.64;;;0.30;100.00
35291;BME280;21411;50.024;19.220;2023-03-03T16:26:16;99237.09;;;0.22;100.00
35291;BME280;21411;50.024;19.220;2023-03-03T16:31:35;99245.90;;;0.18;100.00
35291;BME280;21411;50.024;19.220;2023-03-03T16:34:19;99251.50;;;0.19;100.00
35291;BME280;21411;50.024;19.220;2023-03-03T16:36:57;99256.44;;;0.17;100.00
35291;BME280;21411;50.024;19.220;2023-03-03T16:50:47;99272.73;;;0.14;100.00
35291;BME280;21411;50.024;19.220;2023-03-03T16:56:27;99277.87;;;0.11;100.00
35291;BME280;21411;50.024;19.220;2023-03-03T16:59:02;99275.95;;;0.11;100.00
35291;BME280;21411;50.024;19.220;2023-03-03T17:01:42;99277.70;;;0.10;100.00
35291;BME280;21411;50.024;19.220;2023-03-03T17:04:34;99274.77;;;0.09;100.00
35291;BME280;21411;50.024;19.220;2023-03-03T17:18:12;99273.02;;;0.09;100.00
35291;BME280;21411;50.024;19.220;2023-03-03T17:21:05;99269.36;;;0.09;100.00
35291;BME280;21411;50.024;19.220;2023-03-03T17:31:48;99269.31;;;0.11;100.00
35291;BME280;21411;50.024;19.220;2023-03-03T17:37:42;99267.91;;;0.10;100.00
35291;BME280;21411;50.024;19.220;2023-03-03T17:45:28;99274.58;;;0.09;100.00
35291;BME280;21411;50.024;19.220;2023-03-03T17:48:11;99278.95;;;0.09;100.00
35291;BME280;21411;50.024;19.220;2023-03-03T17:59:28;99269.76;;;0.06;100.00
35291;BME280;21411;50.024;19.220;2023-03-03T18:17:09;99278.55;;;0.02;100.00